sensor_id;sensor_type;location;lat;lon;timestamp;P1;durP1;ratioP1;P2;durP2;ratioP2
17604;SDS011;8921;50.964;6.800;2022-12-11T00:00:25;81.27;;;29.43;;
17604;SDS011;8921;50.964;6.800;2022-12-11T00:02:54;67.60;;;26.83;;
17604;SDS011;8921;50.964;6.800;2022-12-11T00:05:22;66.40;;;29.83;;
17604;SDS011;8921;50.964;6.800;2022-12-11T00:07:50;66.97;;;25.97;;
17604;SDS011;8921;50.964;6.800;2022-12-11T00:10:18;69.37;;;28.27;;
17604;SDS011;8921;50.964;6.800;2022-12-11T00:12:46;69.70;;;28.27;;
17604;SDS011;8921;50.964;6.800;2022-12-11T00:15:15;66.03;;;28.23;;
17604;SDS011;8921;50.964;6.800;2022-12-11T00:17:43;64.00;;;28.13;;
17604;SDS011;8921;50.964;6.800;2022-12-11T00:20:11;55.70;;;24.47;;
17604;SDS011;8921;50.964;6.800;2022-12-11T00:22:39;59.43;;;25.03;;
17604;SDS011;8921;50.964;6.800;2022-12-11T00:25:07;58.13;;;23.53;;
17604;SDS011;8921;50.964;6.800;2022-12-11T00:27:35;51.13;;;24.83;;
17604;SDS011;8921;50.964;6.800;2022-12-11T00:30:04;53.77;;;23.20;;
17604;SDS011;8921;50.964;6.800;2022-12-11T00:32:32;51.90;;;22.57;;
17604;SDS011;8921;50.964;6.800;2022-12-11T00:35:00;53.37;;;21.83;;
17604;SDS011;8921;50.964;6.800;2022-12-11T00:37:28;55.77;;;24.13;;
17604;SDS011;8921;50.964;6.800;2022-12-11T00:39:57;54.67;;;24.07;;
17604;SDS011;8921;50.964;6.800;2022-12-11T00:42:25;47.93;;;21.90;;
17604;SDS011;8921;50.964;6.800;2022-12-11T00:44:53;55.00;;;23.03;;
17604;SDS011;8921;50.964;6.800;2022-12-11T00:47:21;47.97;;;22.97;;
17604;SDS011;8921;50.964;6.800;2022-12-11T00:49:49;56.87;;;24.47;;
17604;SDS011;8921;50.964;6.800;2022-12-11T00:52:17;54.13;;;24.00;;
17604;SDS011;8921;50.964;6.800;2022-12-11T00:54:46;46.10;;;21.67;;
17604;SDS011;8921;50.964;6.800;2022-12-11T00:57:14;51.77;;;23.17;;
17604;SDS011;8921;50.964;6.800;2022-12-11T00:59:42;57.50;;;23.40;;
17604;SDS011;8921;50.964;6.800;2022-12-11T01:02:10;47.17;;;22.20;;
17604;SDS011;8921;50.964;6.800;2022-12-11T01:04:38;45.03;;;21.00;;
17604;SDS011;8921;50.964;6.800;2022-12-11T01:07:07;47.97;;;23.23;;
17604;SDS011;8921;50.964;6.800;2022-12-11T01:09:35;49.67;;;21.97;;
17604;SDS011;8921;50.964;6.800;2022-12-11T01:12:21;54.87;;;23.80;;
17604;SDS011;8921;50.964;6.800;2022-12-11T01:14:49;51.00;;;21.93;;
17604;SDS011;8921;50.964;6.800;2022-12-11T01:17:18;51.70;;;21.80;;
17604;SDS011;8921;50.964;6.800;2022-12-11T01:19:46;56.00;;;24.33;;
17604;SDS011;8921;50.964;6.800;2022-12-11T01:22:14;51.23;;;21.80;;
17604;SDS011;8921;50.964;6.800;2022-12-11T01:24:42;58.97;;;22.37;;
17604;SDS011;8921;50.964;6.800;2022-12-11T01:27:10;53.57;;;23.80;;
17604;SDS011;8921;50.964;6.800;2022-12-11T01:29:39;53.73;;;23.73;;
17604;SDS011;8921;50.964;6.800;2022-12-11T01:32:07;56.97;;;22.50;;
17604;SDS011;8921;50.964;6.800;2022-12-11T01:34:35;55.00;;;26.30;;
17604;SDS011;8921;50.964;6.800;2022-12-11T01:37:03;53.50;;;23.43;;
17604;SDS011;8921;50.964;6.800;2022-12-11T01:39:31;55.80;;;25.40;;
17604;SDS011;8921;50.964;6.800;2022-12-11T01:42:00;54.30;;;26.37;;
17604;SDS011;8921;50.964;6.800;2022-12-11T01:46:56;67.93;;;26.00;;
17604;SDS011;8921;50.964;6.800;2022-12-11T01:49:24;64.90;;;26.10;;
17604;SDS011;8921;50.964;6.800;2022-12-11T01:51:55;66.87;;;26.60;;
17604;SDS011;8921;50.964;6.800;2022-12-11T01:54:21;59.50;;;23.27;;
17604;SDS011;8921;50.964;6.800;2022-12-11T01:56:49;59.57;;;25.20;;
17604;SDS011;8921;50.964;6.800;2022-12-11T01:59:18;69.20;;;27.73;;
17604;SDS011;8921;50.964;6.800;2022-12-11T02:01:46;60.23;;;24.57;;
17604;SDS011;8921;50.964;6.800;2022-12-11T02:04:13;73.53;;;27.80;;
17604;SDS011;8921;50.964;6.800;2022-12-11T02:06:42;60.27;;;24.60;;
17604;SDS011;8921;50.964;6.800;2022-12-11T02:09:13;54.60;;;22.90;;
17604;SDS011;8921;50.964;6.800;2022-12-11T02:14:27;65.27;;;23.53;;
17604;SDS011;8921;50.964;6.800;2022-12-11T02:16:55;52.80;;;23.20;;
17604;SDS011;8921;50.964;6.800;2022-12-11T02:22:10;54.73;;;22.80;;
17604;SDS011;8921;50.964;6.800;2022-12-11T02:30:11;51.73;;;22.40;;
17604;SDS011;8921;50.964;6.800;2022-12-11T02:32:55;51.30;;;23.13;;
17604;SDS011;8921;50.964;6.800;2022-12-11T02:35:36;57.80;;;23.70;;
17604;SDS011;8921;50.964;6.800;2022-12-11T02:38:05;63.13;;;24.97;;
17604;SDS011;8921;50.964;6.800;2022-12-11T02:40:31;55.07;;;23.03;;
17604;SDS011;8921;50.964;6.800;2022-12-11T02:43:00;56.63;;;25.40;;
17604;SDS011;8921;50.964;6.800;2022-12-11T02:45:27;58.03;;;26.30;;
17604;SDS011;8921;50.964;6.800;2022-12-11T02:47:55;64.47;;;24.83;;
17604;SDS011;8921;50.964;6.800;2022-12-11T02:50:23;63.07;;;24.40;;
17604;SDS011;8921;50.964;6.800;2022-12-11T02:52:52;61.43;;;24.53;;
17604;SDS011;8921;50.964;6.800;2022-12-11T02:55:20;58.77;;;26.13;;
17604;SDS011;8921;50.964;6.800;2022-12-11T02:57:52;61.10;;;24.33;;
17604;SDS011;8921;50.964;6.800;2022-12-11T03:00:19;45.37;;;22.87;;
17604;SDS011;8921;50.964;6.800;2022-12-11T03:02:47;62.07;;;24.87;;
17604;SDS011;8921;50.964;6.800;2022-12-11T03:05:15;52.40;;;21.83;;
17604;SDS011;8921;50.964;6.800;2022-12-11T03:07:43;55.50;;;22.07;;
17604;SDS011;8921;50.964;6.800;2022-12-11T03:10:13;55.70;;;23.33;;
17604;SDS011;8921;50.964;6.800;2022-12-11T03:12:41;51.83;;;21.20;;
17604;SDS011;8921;50.964;6.800;2022-12-11T03:15:10;45.07;;;22.10;;
17604;SDS011;8921;50.964;6.800;2022-12-11T03:25:27;44.10;;;17.63;;
17604;SDS011;8921;50.964;6.800;2022-12-11T03:28:08;44.67;;;18.20;;
17604;SDS011;8921;50.964;6.800;2022-12-11T03:30:33;37.93;;;16.60;;
17604;SDS011;8921;50.964;6.800;2022-12-11T03:33:02;37.97;;;15.60;;
17604;SDS011;8921;50.964;6.800;2022-12-11T03:35:31;36.83;;;16.57;;
17604;SDS011;8921;50.964;6.800;2022-12-11T03:37:59;39.17;;;17.23;;
17604;SDS011;8921;50.964;6.800;2022-12-11T03:40:26;33.40;;;16.40;;
17604;SDS011;8921;50.964;6.800;2022-12-11T03:42:54;35.57;;;18.10;;
17604;SDS011;8921;50.964;6.800;2022-12-11T03:45:22;39.80;;;18.73;;
17604;SDS011;8921;50.964;6.800;2022-12-11T03:47:51;37.97;;;16.83;;
17604;SDS011;8921;50.964;6.800;2022-12-11T03:50:19;25.90;;;14.60;;
17604;SDS011;8921;50.964;6.800;2022-12-11T03:52:47;31.03;;;15.73;;
17604;SDS011;8921;50.964;6.800;2022-12-11T03:55:16;37.40;;;14.73;;
17604;SDS011;8921;50.964;6.800;2022-12-11T03:57:43;35.97;;;15.70;;
17604;SDS011;8921;50.964;6.800;2022-12-11T04:00:15;30.97;;;15.60;;
17604;SDS011;8921;50.964;6.800;2022-12-11T04:02:42;32.43;;;15.50;;
17604;SDS011;8921;50.964;6.800;2022-12-11T04:05:10;32.53;;;14.80;;
17604;SDS011;8921;50.964;6.800;2022-12-11T04:07:38;29.20;;;15.57;;
17604;SDS011;8921;50.964;6.800;2022-12-11T04:10:07;31.50;;;16.30;;
17604;SDS011;8921;50.964;6.800;2022-12-11T04:12:35;32.07;;;15.20;;
17604;SDS011;8921;50.964;6.800;2022-12-11T04:15:03;31.27;;;16.47;;
17604;SDS011;8921;50.964;6.800;2022-12-11T04:17:32;37.10;;;15.80;;
17604;SDS011;8921;50.964;6.800;2022-12-11T04:20:18;27.00;;;14.40;;
17604;SDS011;8921;50.964;6.800;2022-12-11T04:23:06;30.53;;;15.40;;
17604;SDS011;8921;50.964;6.800;2022-12-11T04:25:51;32.90;;;16.93;;
17604;SDS011;8921;50.964;6.800;2022-12-11T04:28:19;31.17;;;13.93;;
17604;SDS011;8921;50.964;6.800;2022-12-11T04:30:48;35.53;;;16.83;;
17604;SDS011;8921;50.964;6.800;2022-12-11T04:33:16;34.77;;;17.70;;
17604;SDS011;8921;50.964;6.800;2022-12-11T04:35:44;33.83;;;15.80;;
17604;SDS011;8921;50.964;6.800;2022-12-11T04:38:12;30.83;;;15.70;;
17604;SDS011;8921;50.964;6.800;2022-12-11T04:40:40;34.27;;;17.53;;
17604;SDS011;8921;50.964;6.800;2022-12-11T04:43:08;32.40;;;16.90;;
17604;SDS011;8921;50.964;6.800;2022-12-11T04:45:37;26.50;;;15.53;;
17604;SDS011;8921;50.964;6.800;2022-12-11T04:48:05;34.67;;;15.40;;
17604;SDS011;8921;50.964;6.800;2022-12-11T04:50:33;28.57;;;16.23;;
17604;SDS011;8921;50.964;6.800;2022-12-11T04:53:01;33.40;;;16.67;;
17604;SDS011;8921;50.964;6.800;2022-12-11T04:55:29;32.90;;;15.77;;
17604;SDS011;8921;50.964;6.800;2022-12-11T04:57:57;28.03;;;14.60;;
17604;SDS011;8921;50.964;6.800;2022-12-11T05:00:26;30.13;;;15.23;;
17604;SDS011;8921;50.964;6.800;2022-12-11T05:02:54;36.90;;;18.37;;
17604;SDS011;8921;50.964;6.800;2022-12-11T05:05:22;30.03;;;16.20;;
17604;SDS011;8921;50.964;6.800;2022-12-11T05:07:50;32.53;;;17.10;;
17604;SDS011;8921;50.964;6.800;2022-12-11T05:10:18;29.80;;;14.80;;
17604;SDS011;8921;50.964;6.800;2022-12-11T05:12:47;31.07;;;16.60;;
17604;SDS011;8921;50.964;6.800;2022-12-11T05:15:15;33.97;;;14.83;;
17604;SDS011;8921;50.964;6.800;2022-12-11T05:17:43;37.63;;;17.40;;
17604;SDS011;8921;50.964;6.800;2022-12-11T05:20:11;40.23;;;17.70;;
17604;SDS011;8921;50.964;6.800;2022-12-11T05:22:39;31.53;;;15.50;;
17604;SDS011;8921;50.964;6.800;2022-12-11T05:25:08;36.43;;;16.20;;
17604;SDS011;8921;50.964;6.800;2022-12-11T05:27:36;36.20;;;17.13;;
17604;SDS011;8921;50.964;6.800;2022-12-11T05:30:04;32.10;;;15.57;;
17604;SDS011;8921;50.964;6.800;2022-12-11T05:32:32;30.50;;;14.90;;
17604;SDS011;8921;50.964;6.800;2022-12-11T05:35:00;32.57;;;16.27;;
17604;SDS011;8921;50.964;6.800;2022-12-11T05:37:29;29.60;;;16.10;;
17604;SDS011;8921;50.964;6.800;2022-12-11T05:39:57;35.83;;;17.63;;
17604;SDS011;8921;50.964;6.800;2022-12-11T05:42:25;33.40;;;15.43;;
17604;SDS011;8921;50.964;6.800;2022-12-11T05:44:53;31.10;;;15.57;;
17604;SDS011;8921;50.964;6.800;2022-12-11T05:47:21;30.73;;;14.50;;
17604;SDS011;8921;50.964;6.800;2022-12-11T05:49:50;32.27;;;15.63;;
17604;SDS011;8921;50.964;6.800;2022-12-11T05:52:18;36.97;;;15.17;;
17604;SDS011;8921;50.964;6.800;2022-12-11T05:54:47;29.23;;;13.70;;
17604;SDS011;8921;50.964;6.800;2022-12-11T05:57:14;34.10;;;14.80;;
17604;SDS011;8921;50.964;6.800;2022-12-11T05:59:42;30.27;;;14.87;;
17604;SDS011;8921;50.964;6.800;2022-12-11T06:02:10;35.30;;;16.27;;
17604;SDS011;8921;50.964;6.800;2022-12-11T06:04:38;28.03;;;14.53;;
17604;SDS011;8921;50.964;6.800;2022-12-11T06:07:07;35.10;;;15.13;;
17604;SDS011;8921;50.964;6.800;2022-12-11T06:09:35;33.83;;;15.50;;
17604;SDS011;8921;50.964;6.800;2022-12-11T06:12:03;33.37;;;15.53;;
17604;SDS011;8921;50.964;6.800;2022-12-11T06:14:31;28.60;;;14.37;;
17604;SDS011;8921;50.964;6.800;2022-12-11T06:16:59;40.03;;;16.33;;
17604;SDS011;8921;50.964;6.800;2022-12-11T06:19:28;25.50;;;13.80;;
17604;SDS011;8921;50.964;6.800;2022-12-11T06:21:56;36.17;;;16.30;;
17604;SDS011;8921;50.964;6.800;2022-12-11T06:24:24;40.63;;;16.63;;
17604;SDS011;8921;50.964;6.800;2022-12-11T06:26:52;34.33;;;15.00;;
17604;SDS011;8921;50.964;6.800;2022-12-11T06:29:20;37.97;;;15.70;;
17604;SDS011;8921;50.964;6.800;2022-12-11T06:31:48;37.33;;;16.60;;
17604;SDS011;8921;50.964;6.800;2022-12-11T06:34:17;31.50;;;16.50;;
17604;SDS011;8921;50.964;6.800;2022-12-11T06:36:45;34.97;;;16.17;;
17604;SDS011;8921;50.964;6.800;2022-12-11T06:39:13;30.83;;;14.33;;
17604;SDS011;8921;50.964;6.800;2022-12-11T06:41:41;34.50;;;16.87;;
17604;SDS011;8921;50.964;6.800;2022-12-11T06:44:09;41.37;;;16.70;;
17604;SDS011;8921;50.964;6.800;2022-12-11T06:46:38;32.63;;;15.90;;
17604;SDS011;8921;50.964;6.800;2022-12-11T06:49:06;30.40;;;14.90;;
17604;SDS011;8921;50.964;6.800;2022-12-11T06:51:34;29.07;;;13.80;;
17604;SDS011;8921;50.964;6.800;2022-12-11T06:54:02;32.43;;;14.57;;
17604;SDS011;8921;50.964;6.800;2022-12-11T06:56:32;32.50;;;14.87;;
17604;SDS011;8921;50.964;6.800;2022-12-11T06:58:58;34.47;;;14.23;;
17604;SDS011;8921;50.964;6.800;2022-12-11T07:01:27;35.80;;;16.60;;
17604;SDS011;8921;50.964;6.800;2022-12-11T07:03:56;37.67;;;16.93;;
17604;SDS011;8921;50.964;6.800;2022-12-11T07:06:24;35.30;;;15.63;;
17604;SDS011;8921;50.964;6.800;2022-12-11T07:08:51;29.83;;;15.00;;
17604;SDS011;8921;50.964;6.800;2022-12-11T07:11:20;28.97;;;14.73;;
17604;SDS011;8921;50.964;6.800;2022-12-11T07:13:48;30.43;;;14.23;;
17604;SDS011;8921;50.964;6.800;2022-12-11T07:16:16;32.10;;;16.10;;
17604;SDS011;8921;50.964;6.800;2022-12-11T07:18:48;31.27;;;13.27;;
17604;SDS011;8921;50.964;6.800;2022-12-11T07:21:15;34.53;;;16.23;;
17604;SDS011;8921;50.964;6.800;2022-12-11T07:23:43;25.00;;;14.07;;
17604;SDS011;8921;50.964;6.800;2022-12-11T07:26:12;33.57;;;14.70;;
17604;SDS011;8921;50.964;6.800;2022-12-11T07:28:40;33.67;;;15.87;;
17604;SDS011;8921;50.964;6.800;2022-12-11T07:31:09;29.03;;;15.57;;
17604;SDS011;8921;50.964;6.800;2022-12-11T07:33:36;32.73;;;14.90;;
17604;SDS011;8921;50.964;6.800;2022-12-11T07:36:04;33.37;;;14.70;;
17604;SDS011;8921;50.964;6.800;2022-12-11T07:38:32;33.20;;;14.70;;
17604;SDS011;8921;50.964;6.800;2022-12-11T07:41:01;32.83;;;13.83;;
17604;SDS011;8921;50.964;6.800;2022-12-11T07:43:28;30.00;;;16.10;;
17604;SDS011;8921;50.964;6.800;2022-12-11T07:46:03;27.63;;;15.43;;
17604;SDS011;8921;50.964;6.800;2022-12-11T07:48:31;34.00;;;15.33;;
17604;SDS011;8921;50.964;6.800;2022-12-11T07:51:09;28.40;;;15.87;;
17604;SDS011;8921;50.964;6.800;2022-12-11T07:53:36;26.43;;;14.00;;
17604;SDS011;8921;50.964;6.800;2022-12-11T07:56:04;30.50;;;14.80;;
17604;SDS011;8921;50.964;6.800;2022-12-11T07:58:32;26.80;;;14.27;;
17604;SDS011;8921;50.964;6.800;2022-12-11T08:01:00;35.57;;;15.23;;
17604;SDS011;8921;50.964;6.800;2022-12-11T08:03:28;43.90;;;16.77;;
17604;SDS011;8921;50.964;6.800;2022-12-11T08:05:57;30.10;;;15.43;;
17604;SDS011;8921;50.964;6.800;2022-12-11T08:08:25;35.80;;;16.17;;
17604;SDS011;8921;50.964;6.800;2022-12-11T08:10:53;26.37;;;14.10;;
17604;SDS011;8921;50.964;6.800;2022-12-11T08:13:21;27.93;;;13.90;;
17604;SDS011;8921;50.964;6.800;2022-12-11T08:15:49;32.27;;;14.47;;
17604;SDS011;8921;50.964;6.800;2022-12-11T08:18:18;24.43;;;13.50;;
17604;SDS011;8921;50.964;6.800;2022-12-11T08:20:46;31.50;;;15.63;;
17604;SDS011;8921;50.964;6.800;2022-12-11T08:23:14;33.30;;;14.97;;
17604;SDS011;8921;50.964;6.800;2022-12-11T08:25:42;29.93;;;14.37;;
17604;SDS011;8921;50.964;6.800;2022-12-11T08:28:10;37.73;;;16.10;;
17604;SDS011;8921;50.964;6.800;2022-12-11T08:30:38;27.73;;;15.00;;
17604;SDS011;8921;50.964;6.800;2022-12-11T08:33:07;28.47;;;13.93;;
17604;SDS011;8921;50.964;6.800;2022-12-11T08:35:37;29.90;;;15.80;;
17604;SDS011;8921;50.964;6.800;2022-12-11T08:38:03;31.07;;;15.00;;
17604;SDS011;8921;50.964;6.800;2022-12-11T08:40:31;31.03;;;13.83;;
17604;SDS011;8921;50.964;6.800;2022-12-11T08:42:59;28.33;;;14.57;;
17604;SDS011;8921;50.964;6.800;2022-12-11T08:45:27;25.77;;;13.90;;
17604;SDS011;8921;50.964;6.800;2022-12-11T08:47:57;33.73;;;15.90;;
17604;SDS011;8921;50.964;6.800;2022-12-11T08:50:24;30.77;;;15.37;;
17604;SDS011;8921;50.964;6.800;2022-12-11T08:52:52;35.60;;;15.80;;
17604;SDS011;8921;50.964;6.800;2022-12-11T08:55:20;30.10;;;15.10;;
17604;SDS011;8921;50.964;6.800;2022-12-11T08:57:48;26.50;;;13.00;;
17604;SDS011;8921;50.964;6.800;2022-12-11T09:00:16;31.00;;;14.80;;
17604;SDS011;8921;50.964;6.800;2022-12-11T09:02:45;27.50;;;13.47;;
17604;SDS011;8921;50.964;6.800;2022-12-11T09:05:13;28.07;;;14.20;;
17604;SDS011;8921;50.964;6.800;2022-12-11T09:07:41;32.60;;;14.33;;
17604;SDS011;8921;50.964;6.800;2022-12-11T09:10:09;31.90;;;15.70;;
17604;SDS011;8921;50.964;6.800;2022-12-11T09:12:37;27.23;;;14.33;;
17604;SDS011;8921;50.964;6.800;2022-12-11T09:15:06;29.30;;;15.43;;
17604;SDS011;8921;50.964;6.800;2022-12-11T09:17:34;28.77;;;16.33;;
17604;SDS011;8921;50.964;6.800;2022-12-11T09:20:02;40.77;;;16.23;;
17604;SDS011;8921;50.964;6.800;2022-12-11T09:22:31;36.00;;;14.87;;
17604;SDS011;8921;50.964;6.800;2022-12-11T09:24:58;34.33;;;16.00;;
17604;SDS011;8921;50.964;6.800;2022-12-11T09:27:27;38.83;;;16.47;;
17604;SDS011;8921;50.964;6.800;2022-12-11T09:29:55;35.67;;;16.30;;
17604;SDS011;8921;50.964;6.800;2022-12-11T09:32:23;31.40;;;15.87;;
17604;SDS011;8921;50.964;6.800;2022-12-11T09:34:51;34.40;;;15.33;;
17604;SDS011;8921;50.964;6.800;2022-12-11T09:37:19;39.03;;;16.93;;
17604;SDS011;8921;50.964;6.800;2022-12-11T09:39:47;35.83;;;16.50;;
17604;SDS011;8921;50.964;6.800;2022-12-11T09:42:43;34.03;;;16.03;;
17604;SDS011;8921;50.964;6.800;2022-12-11T09:44:48;35.43;;;16.53;;
17604;SDS011;8921;50.964;6.800;2022-12-11T09:47:19;32.60;;;16.70;;
17604;SDS011;8921;50.964;6.800;2022-12-11T09:49:46;42.93;;;19.27;;
17604;SDS011;8921;50.964;6.800;2022-12-11T09:52:16;30.67;;;16.07;;
17604;SDS011;8921;50.964;6.800;2022-12-11T09:54:44;39.40;;;17.80;;
17604;SDS011;8921;50.964;6.800;2022-12-11T09:57:13;40.33;;;16.90;;
17604;SDS011;8921;50.964;6.800;2022-12-11T10:07:15;39.47;;;17.93;;
17604;SDS011;8921;50.964;6.800;2022-12-11T10:17:43;42.67;;;18.40;;
17604;SDS011;8921;50.964;6.800;2022-12-11T10:22:49;39.60;;;18.80;;
17604;SDS011;8921;50.964;6.800;2022-12-11T10:25:18;35.80;;;18.43;;
17604;SDS011;8921;50.964;6.800;2022-12-11T10:27:45;43.40;;;18.17;;
17604;SDS011;8921;50.964;6.800;2022-12-11T10:30:17;41.10;;;19.87;;
17604;SDS011;8921;50.964;6.800;2022-12-11T10:32:51;43.80;;;19.30;;
17604;SDS011;8921;50.964;6.800;2022-12-11T10:35:24;33.83;;;18.10;;
17604;SDS011;8921;50.964;6.800;2022-12-11T10:37:46;42.77;;;18.73;;
17604;SDS011;8921;50.964;6.800;2022-12-11T10:40:14;41.30;;;18.17;;
17604;SDS011;8921;50.964;6.800;2022-12-11T10:42:50;53.10;;;21.20;;
17604;SDS011;8921;50.964;6.800;2022-12-11T10:45:14;39.70;;;18.80;;
17604;SDS011;8921;50.964;6.800;2022-12-11T10:47:39;42.80;;;19.07;;
17604;SDS011;8921;50.964;6.800;2022-12-11T10:50:20;47.93;;;26.47;;
17604;SDS011;8921;50.964;6.800;2022-12-11T10:52:41;41.90;;;19.23;;
17604;SDS011;8921;50.964;6.800;2022-12-11T10:55:07;42.23;;;18.17;;
17604;SDS011;8921;50.964;6.800;2022-12-11T10:57:35;45.63;;;21.40;;
17604;SDS011;8921;50.964;6.800;2022-12-11T11:00:04;43.73;;;19.33;;
17604;SDS011;8921;50.964;6.800;2022-12-11T11:02:32;38.67;;;19.10;;
17604;SDS011;8921;50.964;6.800;2022-12-11T11:04:59;43.27;;;19.47;;
17604;SDS011;8921;50.964;6.800;2022-12-11T11:07:28;52.20;;;21.53;;
17604;SDS011;8921;50.964;6.800;2022-12-11T11:12:36;42.13;;;20.80;;
17604;SDS011;8921;50.964;6.800;2022-12-11T11:15:03;47.10;;;22.50;;
17604;SDS011;8921;50.964;6.800;2022-12-11T11:17:30;43.50;;;19.70;;
17604;SDS011;8921;50.964;6.800;2022-12-11T11:19:58;52.50;;;20.73;;
17604;SDS011;8921;50.964;6.800;2022-12-11T11:22:25;58.80;;;23.50;;
17604;SDS011;8921;50.964;6.800;2022-12-11T11:24:54;51.50;;;21.47;;
17604;SDS011;8921;50.964;6.800;2022-12-11T11:27:29;53.77;;;22.57;;
17604;SDS011;8921;50.964;6.800;2022-12-11T11:29:57;48.43;;;21.30;;
17604;SDS011;8921;50.964;6.800;2022-12-11T11:32:31;55.37;;;22.37;;
17604;SDS011;8921;50.964;6.800;2022-12-11T11:37:39;52.47;;;23.27;;
17604;SDS011;8921;50.964;6.800;2022-12-11T11:45:13;53.27;;;22.17;;
17604;SDS011;8921;50.964;6.800;2022-12-11T11:47:40;59.53;;;22.73;;
17604;SDS011;8921;50.964;6.800;2022-12-11T11:50:12;59.27;;;23.70;;
17604;SDS011;8921;50.964;6.800;2022-12-11T11:52:54;54.47;;;22.73;;
17604;SDS011;8921;50.964;6.800;2022-12-11T11:55:36;59.30;;;23.93;;
17604;SDS011;8921;50.964;6.800;2022-12-11T11:58:06;50.73;;;23.80;;
17604;SDS011;8921;50.964;6.800;2022-12-11T12:00:32;51.23;;;22.93;;
17604;SDS011;8921;50.964;6.800;2022-12-11T12:03:02;51.07;;;22.87;;
17604;SDS011;8921;50.964;6.800;2022-12-11T12:05:34;60.90;;;26.20;;
17604;SDS011;8921;50.964;6.800;2022-12-11T12:10:28;58.93;;;23.70;;
17604;SDS011;8921;50.964;6.800;2022-12-11T12:15:46;67.70;;;27.10;;
17604;SDS011;8921;50.964;6.800;2022-12-11T12:18:56;57.70;;;23.90;;
17604;SDS011;8921;50.964;6.800;2022-12-11T12:23:24;48.03;;;20.97;;
17604;SDS011;8921;50.964;6.800;2022-12-11T12:31:02;56.33;;;21.70;;
17604;SDS011;8921;50.964;6.800;2022-12-11T12:33:40;54.70;;;23.40;;
17604;SDS011;8921;50.964;6.800;2022-12-11T12:36:05;60.40;;;23.80;;
17604;SDS011;8921;50.964;6.800;2022-12-11T12:38:38;45.13;;;23.40;;
17604;SDS011;8921;50.964;6.800;2022-12-11T12:41:03;50.73;;;22.50;;
17604;SDS011;8921;50.964;6.800;2022-12-11T12:48:36;56.17;;;20.57;;
17604;SDS011;8921;50.964;6.800;2022-12-11T12:51:04;48.30;;;23.80;;
17604;SDS011;8921;50.964;6.800;2022-12-11T12:53:33;54.03;;;23.57;;
17604;SDS011;8921;50.964;6.800;2022-12-11T12:56:01;52.40;;;22.53;;
17604;SDS011;8921;50.964;6.800;2022-12-11T12:58:38;54.17;;;23.60;;
17604;SDS011;8921;50.964;6.800;2022-12-11T13:01:07;59.73;;;26.40;;
17604;SDS011;8921;50.964;6.800;2022-12-11T13:03:36;61.40;;;25.47;;
17604;SDS011;8921;50.964;6.800;2022-12-11T13:06:08;61.07;;;24.60;;
17604;SDS011;8921;50.964;6.800;2022-12-11T13:08:38;61.27;;;27.70;;
17604;SDS011;8921;50.964;6.800;2022-12-11T13:11:07;65.33;;;25.90;;
17604;SDS011;8921;50.964;6.800;2022-12-11T13:13:36;57.80;;;26.00;;
17604;SDS011;8921;50.964;6.800;2022-12-11T13:16:07;53.83;;;23.33;;
17604;SDS011;8921;50.964;6.800;2022-12-11T13:18:36;48.60;;;20.90;;
17604;SDS011;8921;50.964;6.800;2022-12-11T13:21:03;47.33;;;21.97;;
17604;SDS011;8921;50.964;6.800;2022-12-11T13:23:31;52.20;;;23.20;;
17604;SDS011;8921;50.964;6.800;2022-12-11T13:26:00;45.50;;;19.83;;
17604;SDS011;8921;50.964;6.800;2022-12-11T13:33:48;37.90;;;17.70;;
17604;SDS011;8921;50.964;6.800;2022-12-11T13:38:51;39.60;;;17.67;;
17604;SDS011;8921;50.964;6.800;2022-12-11T13:41:18;41.73;;;20.10;;
17604;SDS011;8921;50.964;6.800;2022-12-11T13:43:46;44.27;;;20.97;;
17604;SDS011;8921;50.964;6.800;2022-12-11T13:46:14;35.10;;;17.60;;
17604;SDS011;8921;50.964;6.800;2022-12-11T13:48:46;37.33;;;18.77;;
17604;SDS011;8921;50.964;6.800;2022-12-11T13:51:15;51.03;;;21.70;;
17604;SDS011;8921;50.964;6.800;2022-12-11T13:53:41;42.07;;;20.67;;
17604;SDS011;8921;50.964;6.800;2022-12-11T13:56:15;33.57;;;18.30;;
17604;SDS011;8921;50.964;6.800;2022-12-11T13:58:40;34.27;;;18.77;;
17604;SDS011;8921;50.964;6.800;2022-12-11T14:01:09;44.10;;;21.40;;
17604;SDS011;8921;50.964;6.800;2022-12-11T14:03:39;36.90;;;19.47;;
17604;SDS011;8921;50.964;6.800;2022-12-11T14:06:10;35.53;;;19.40;;
17604;SDS011;8921;50.964;6.800;2022-12-11T14:08:39;39.00;;;20.80;;
17604;SDS011;8921;50.964;6.800;2022-12-11T14:11:06;41.37;;;19.53;;
17604;SDS011;8921;50.964;6.800;2022-12-11T14:13:35;38.83;;;20.07;;
17604;SDS011;8921;50.964;6.800;2022-12-11T14:16:02;40.40;;;21.63;;
17604;SDS011;8921;50.964;6.800;2022-12-11T14:18:31;47.37;;;20.40;;
17604;SDS011;8921;50.964;6.800;2022-12-11T14:21:00;47.33;;;21.40;;
17604;SDS011;8921;50.964;6.800;2022-12-11T14:23:30;42.07;;;21.47;;
17604;SDS011;8921;50.964;6.800;2022-12-11T14:25:56;49.97;;;21.33;;
17604;SDS011;8921;50.964;6.800;2022-12-11T14:28:24;45.20;;;21.50;;
17604;SDS011;8921;50.964;6.800;2022-12-11T14:30:52;45.30;;;20.57;;
17604;SDS011;8921;50.964;6.800;2022-12-11T14:33:21;44.03;;;20.50;;
17604;SDS011;8921;50.964;6.800;2022-12-11T14:35:48;42.93;;;21.37;;
17604;SDS011;8921;50.964;6.800;2022-12-11T14:38:17;40.30;;;19.23;;
17604;SDS011;8921;50.964;6.800;2022-12-11T14:40:46;35.10;;;18.03;;
17604;SDS011;8921;50.964;6.800;2022-12-11T14:43:14;41.90;;;20.20;;
17604;SDS011;8921;50.964;6.800;2022-12-11T14:45:41;38.00;;;17.83;;
17604;SDS011;8921;50.964;6.800;2022-12-11T14:48:16;38.33;;;18.17;;
17604;SDS011;8921;50.964;6.800;2022-12-11T14:50:42;34.27;;;18.47;;
17604;SDS011;8921;50.964;6.800;2022-12-11T14:53:14;35.60;;;17.47;;
17604;SDS011;8921;50.964;6.800;2022-12-11T14:55:42;33.87;;;18.47;;
17604;SDS011;8921;50.964;6.800;2022-12-11T14:58:17;36.10;;;17.43;;
17604;SDS011;8921;50.964;6.800;2022-12-11T15:00:54;38.33;;;18.20;;
17604;SDS011;8921;50.964;6.800;2022-12-11T15:05:50;41.27;;;18.90;;
17604;SDS011;8921;50.964;6.800;2022-12-11T15:08:18;37.47;;;17.33;;
17604;SDS011;8921;50.964;6.800;2022-12-11T15:13:22;37.20;;;17.80;;
17604;SDS011;8921;50.964;6.800;2022-12-11T15:15:50;31.43;;;17.47;;
17604;SDS011;8921;50.964;6.800;2022-12-11T15:18:22;35.70;;;16.97;;
17604;SDS011;8921;50.964;6.800;2022-12-11T15:20:50;35.17;;;17.17;;
17604;SDS011;8921;50.964;6.800;2022-12-11T15:23:17;33.80;;;18.10;;
17604;SDS011;8921;50.964;6.800;2022-12-11T15:25:53;34.13;;;18.00;;
17604;SDS011;8921;50.964;6.800;2022-12-11T15:28:27;34.63;;;18.27;;
17604;SDS011;8921;50.964;6.800;2022-12-11T15:30:58;34.20;;;17.83;;
17604;SDS011;8921;50.964;6.800;2022-12-11T15:33:25;42.53;;;19.63;;
17604;SDS011;8921;50.964;6.800;2022-12-11T15:36:03;39.80;;;19.07;;
17604;SDS011;8921;50.964;6.800;2022-12-11T15:38:31;36.40;;;18.40;;
17604;SDS011;8921;50.964;6.800;2022-12-11T15:40:59;34.00;;;17.53;;
17604;SDS011;8921;50.964;6.800;2022-12-11T15:43:27;37.77;;;18.13;;
17604;SDS011;8921;50.964;6.800;2022-12-11T15:45:55;31.97;;;17.60;;
17604;SDS011;8921;50.964;6.800;2022-12-11T15:48:23;37.27;;;19.77;;
17604;SDS011;8921;50.964;6.800;2022-12-11T15:50:51;40.20;;;18.47;;
17604;SDS011;8921;50.964;6.800;2022-12-11T15:53:22;37.53;;;19.97;;
17604;SDS011;8921;50.964;6.800;2022-12-11T15:55:50;39.33;;;18.63;;
17604;SDS011;8921;50.964;6.800;2022-12-11T15:58:19;37.07;;;19.23;;
17604;SDS011;8921;50.964;6.800;2022-12-11T16:00:46;38.17;;;19.27;;
17604;SDS011;8921;50.964;6.800;2022-12-11T16:03:18;35.53;;;20.07;;